AirNav   Air Wisconsin Up To $57,000 Bonus
 
 404 users online  

37MO Mayes Homestead Airport
Polo, Missouri, USA

GOING TO POLO?


FAA INFORMATION EFFECTIVE 22 APRIL 2021

Location

FAA Identifier: 37MO
Lat/Long: 39-33-58.0600N 094-11-04.8900W
39-33.967667N 094-11.081500W
39.5661278,-94.1846917
(estimated)
Elevation: 1000 ft. / 305 m (estimated)
Variation: 05E (1985)
From city: 6 miles W of POLO, MO
Time zone: UTC -5 (UTC -6 during Standard Time)
Zip code: 64465

Airport Operations

Airport use: Private use. Permission required prior to landing
Activation date: 10/1978
Control tower: no
ARTCC: KANSAS CITY CENTER
FSS: COLUMBIA FLIGHT SERVICE STATION
Attendance: UNATNDD
Wind indicator: no
Segmented circle: no

Airport Communications

WX AWOS-3PT at EZZ (11 nm NW): 121.05 (816-933-2124)
WX AWOS-3 at GPH (15 nm S): 120.275 (816-407-3399)

Nearby radio navigation aids

VOR radial/distance  VOR name  Freq  Var
BQSr252/14.8BRAYMER VOR/DME111.2003E
ANXr348/28.4NAPOLEON VORTAC114.0007E
MCIr052/30.6KANSAS CITY VORTAC113.2505E

 
NDB name  Hdg/Dist  Freq  Var  ID
AMAZON116/38.423304EAZN .- --.. -.

Airport Services

Runway Information

Runway 18/36

Dimensions: 2260 x 60 ft. / 689 x 18 m
Surface: turf
RUNWAY 18  RUNWAY 36
Latitude: 39-34.153833N39-33.781500N
Longitude: 094-11.081500W094-11.081500W
Elevation: 995.0 ft.966.0 ft.
Traffic pattern: leftleft
Runway heading: 175 magnetic, 180 true355 magnetic, 360 true
Obstructions: nonewires, 300 ft. from runway

Airport Ownership and Management from official FAA records

Ownership: Privately-owned
Owner: DONALD MAYES
9786 SW RENO DR
LATHROP, MO 64465
Phone 816-935-9423
Manager: DONALD MAYES
9786 SW RENO DR
LATHROP, MO 64465
Phone 816-935-9423

Additional Remarks

FOR CD CTC KANSAS CITY APCH AT 816-329-2710.

Instrument Procedures

There are no published instrument procedures at 37MO.

Some nearby airports with instrument procedures:

KEZZ - Cameron Memorial Airport (11 nm NW)
3EX - Excelsior Springs Memorial Airport (14 nm S)
KGPH - Midwest NTL Air Center Airport (15 nm S)
KMCI - Kansas City International Airport (29 nm SW)
KMKC - Charles B Wheeler Downtown Airport (33 nm SW)
 
Loc | Ops | Rwys | IFR | FBO | Links
Com | Nav | Svcs | Stats | Notes
Area around 37MO (Mayes Homestead Airport)
 
Road maps at: MapQuest Bing Google
 
Aerial photo
No photo
 
Sectional chart

 
Airport distance calculator
Flying to Mayes Homestead Airport? Find the distance to fly.

From to 37MO

Sunrise and sunset
Times for 09-May-2021
 Local
(UTC-5)
 Zulu
(UTC)
Morning civil twilight05:4010:40
Sunrise06:0911:09
Sunset20:1701:17
Evening civil twilight20:4701:47

Current date and time
Zulu (UTC)  09-May-2021 07:11:45
Local (UTC-5)  09-May-2021 02:11:45
 
METAR
KEZZ 
11nm NW 
090655Z AUTO 02020G23KT 10SM +TSRA BKN009 OVC029 07/06 A2968 RMK AO2 LTG DSNT ALQDS P0022 T00740064
KGPH 
15nm S 
090635Z AUTO 02011KT 10SM TSRA SCT014 BKN023 OVC070 11/09 A2962 RMK AO2 LTG DSNT ALQS
TAF
KMCI 
30nm SW 
090539Z 0906/1006 36008KT P6SM RA VCTS OVC040CB TEMPO 0906/0910 36012G25KT 2SM TSRA OVC020CB FM091000 03014G20KT P6SM OVC020 FM100000 VRB04KT P6SM BKN040
KMKC 
33nm SW 
090539Z 0906/1006 36008KT P6SM RA VCTS OVC040CB TEMPO 0906/0910 36012G25KT 2SM TSRA OVC020CB FM091000 03014G20KT P6SM OVC020 FM100000 VRB04KT P6SM BKN040
KSTJ 
36nm W 
090539Z 0906/1006 08012G25KT P6SM RA OVC040 TEMPO 0906/0910 08020G35KT 2SM TSRA BR OVC020CB FM091000 02012G18KT P6SM OVC015 FM092000 36012KT P6SM OVC020 FM100100 VRB06KT P6SM BKN040
NOTAMs
Click for the latest NOTAMs
NOTAMs are issued by the DoD/FAA and will open in a separate window not controlled by AirNav.

 

 
 

Would you like to see your business listed on this page?

 If your business provides an interesting product or service to pilots, flight crews, aircraft, or users of the Mayes Homestead Airport, you should consider listing it here.  To start the listing process, click on the button below
 
Add a business
 

Other Pages about Mayes Homestead Airport

Update a link
 
Copyright © AirNav, LLC. All rights reserved. Privacy Policy  Contact